sensor_id;sensor_type;location;lat;lon;timestamp;temperature;humidity
34877;DHT22;21086;44.780;17.194;2022-07-29T00:02:25;22.30;99.90
34877;DHT22;21086;44.780;17.194;2022-07-29T00:04:52;22.30;99.90
34877;DHT22;21086;44.780;17.194;2022-07-29T00:07:19;22.20;99.90
34877;DHT22;21086;44.780;17.194;2022-07-29T00:09:46;22.20;99.90
34877;DHT22;21086;44.780;17.194;2022-07-29T00:12:22;22.30;99.90
34877;DHT22;21086;44.780;17.194;2022-07-29T00:14:56;22.40;99.90
34877;DHT22;21086;44.780;17.194;2022-07-29T00:17:25;22.50;99.90
34877;DHT22;21086;44.780;17.194;2022-07-29T00:19:53;22.50;99.90
34877;DHT22;21086;44.780;17.194;2022-07-29T00:22:20;22.50;99.90
34877;DHT22;21086;44.780;17.194;2022-07-29T00:24:48;22.60;99.90
34877;DHT22;21086;44.780;17.194;2022-07-29T00:27:16;22.50;99.90
34877;DHT22;21086;44.780;17.194;2022-07-29T00:29:44;22.30;99.90
34877;DHT22;21086;44.780;17.194;2022-07-29T00:32:11;22.20;99.90
34877;DHT22;21086;44.780;17.194;2022-07-29T00:34:39;22.30;99.90
34877;DHT22;21086;44.780;17.194;2022-07-29T00:37:24;22.20;99.90
34877;DHT22;21086;44.780;17.194;2022-07-29T00:39:51;22.40;99.90
34877;DHT22;21086;44.780;17.194;2022-07-29T00:42:18;22.20;99.90
34877;DHT22;21086;44.780;17.194;2022-07-29T00:44:45;22.50;99.90
34877;DHT22;21086;44.780;17.194;2022-07-29T00:47:12;22.40;99.90
34877;DHT22;21086;44.780;17.194;2022-07-29T00:49:40;22.60;99.90
34877;DHT22;21086;44.780;17.194;2022-07-29T00:52:09;22.50;99.90
34877;DHT22;21086;44.780;17.194;2022-07-29T00:54:38;22.40;99.90
34877;DHT22;21086;44.780;17.194;2022-07-29T00:57:10;22.40;99.90
34877;DHT22;21086;44.780;17.194;2022-07-29T00:59:37;22.30;99.90
34877;DHT22;21086;44.780;17.194;2022-07-29T01:02:04;22.30;99.90
34877;DHT22;21086;44.780;17.194;2022-07-29T01:04:32;22.20;99.90
34877;DHT22;21086;44.780;17.194;2022-07-29T01:07:01;22.20;99.90
34877;DHT22;21086;44.780;17.194;2022-07-29T01:09:31;22.10;99.90
34877;DHT22;21086;44.780;17.194;2022-07-29T01:12:18;22.10;99.90
34877;DHT22;21086;44.780;17.194;2022-07-29T01:14:47;22.00;99.90
34877;DHT22;21086;44.780;17.194;2022-07-29T01:17:26;22.00;99.90
34877;DHT22;21086;44.780;17.194;2022-07-29T01:20:07;21.90;99.90
34877;DHT22;21086;44.780;17.194;2022-07-29T01:30:59;21.60;99.90
34877;DHT22;21086;44.780;17.194;2022-07-29T01:33:31;21.50;99.90
34877;DHT22;21086;44.780;17.194;2022-07-29T01:36:23;21.50;99.90
34877;DHT22;21086;44.780;17.194;2022-07-29T01:39:19;21.50;99.90
34877;DHT22;21086;44.780;17.194;2022-07-29T01:41:58;21.40;99.90
34877;DHT22;21086;44.780;17.194;2022-07-29T01:44:33;21.50;99.90
34877;DHT22;21086;44.780;17.194;2022-07-29T01:47:05;21.40;99.90
34877;DHT22;21086;44.780;17.194;2022-07-29T01:49:41;21.40;99.90
34877;DHT22;21086;44.780;17.194;2022-07-29T01:52:15;21.40;99.90
34877;DHT22;21086;44.780;17.194;2022-07-29T01:54:55;21.40;99.90
34877;DHT22;21086;44.780;17.194;2022-07-29T01:57:28;21.40;99.90
34877;DHT22;21086;44.780;17.194;2022-07-29T01:59:57;21.40;99.90
34877;DHT22;21086;44.780;17.194;2022-07-29T02:02:26;21.50;99.90
34877;DHT22;21086;44.780;17.194;2022-07-29T02:04:55;21.50;99.90
34877;DHT22;21086;44.780;17.194;2022-07-29T02:07:24;21.40;99.90
34877;DHT22;21086;44.780;17.194;2022-07-29T02:09:54;21.40;99.90
34877;DHT22;21086;44.780;17.194;2022-07-29T02:12:24;21.40;99.90
34877;DHT22;21086;44.780;17.194;2022-07-29T02:14:53;21.30;99.90
34877;DHT22;21086;44.780;17.194;2022-07-29T02:17:27;21.20;99.90
34877;DHT22;21086;44.780;17.194;2022-07-29T02:19:57;21.20;99.90
34877;DHT22;21086;44.780;17.194;2022-07-29T02:22:27;21.20;99.90
34877;DHT22;21086;44.780;17.194;2022-07-29T02:24:55;21.10;99.90
34877;DHT22;21086;44.780;17.194;2022-07-29T02:27:27;21.00;99.90
34877;DHT22;21086;44.780;17.194;2022-07-29T02:29:55;21.00;99.90
34877;DHT22;21086;44.780;17.194;2022-07-29T02:32:24;21.00;99.90
34877;DHT22;21086;44.780;17.194;2022-07-29T02:34:54;21.00;99.90
34877;DHT22;21086;44.780;17.194;2022-07-29T02:37:22;21.00;99.90
34877;DHT22;21086;44.780;17.194;2022-07-29T02:39:52;20.90;99.90
34877;DHT22;21086;44.780;17.194;2022-07-29T02:42:21;20.90;99.90
34877;DHT22;21086;44.780;17.194;2022-07-29T02:44:49;20.90;99.90
34877;DHT22;21086;44.780;17.194;2022-07-29T02:47:21;20.80;99.90
34877;DHT22;21086;44.780;17.194;2022-07-29T02:49:55;20.80;99.90
34877;DHT22;21086;44.780;17.194;2022-07-29T02:58:26;20.70;99.90
34877;DHT22;21086;44.780;17.194;2022-07-29T03:01:03;20.70;99.90
34877;DHT22;21086;44.780;17.194;2022-07-29T03:03:35;20.60;99.90
34877;DHT22;21086;44.780;17.194;2022-07-29T03:06:03;20.50;99.90
34877;DHT22;21086;44.780;17.194;2022-07-29T03:08:32;20.60;99.90
34877;DHT22;21086;44.780;17.194;2022-07-29T03:11:00;20.60;99.90
34877;DHT22;21086;44.780;17.194;2022-07-29T03:13:29;20.50;99.90
34877;DHT22;21086;44.780;17.194;2022-07-29T03:15:57;20.50;99.90
34877;DHT22;21086;44.780;17.194;2022-07-29T03:18:25;20.50;99.90
34877;DHT22;21086;44.780;17.194;2022-07-29T03:20:52;20.50;99.90
34877;DHT22;21086;44.780;17.194;2022-07-29T03:23:20;20.50;99.90
34877;DHT22;21086;44.780;17.194;2022-07-29T03:25:48;20.50;99.90
34877;DHT22;21086;44.780;17.194;2022-07-29T03:28:16;20.40;99.90
34877;DHT22;21086;44.780;17.194;2022-07-29T03:30:45;20.30;99.90
34877;DHT22;21086;44.780;17.194;2022-07-29T03:33:13;20.30;99.90
34877;DHT22;21086;44.780;17.194;2022-07-29T03:35:40;20.30;99.90
34877;DHT22;21086;44.780;17.194;2022-07-29T03:38:07;20.30;99.90
34877;DHT22;21086;44.780;17.194;2022-07-29T03:40:48;20.40;99.90
34877;DHT22;21086;44.780;17.194;2022-07-29T03:43:17;20.40;99.90
34877;DHT22;21086;44.780;17.194;2022-07-29T03:45:47;20.40;99.90
34877;DHT22;21086;44.780;17.194;2022-07-29T03:48:19;20.40;99.90
34877;DHT22;21086;44.780;17.194;2022-07-29T03:50:48;20.40;99.90
34877;DHT22;21086;44.780;17.194;2022-07-29T03:53:17;20.40;99.90
34877;DHT22;21086;44.780;17.194;2022-07-29T03:55:52;20.50;99.90
34877;DHT22;21086;44.780;17.194;2022-07-29T03:58:21;20.50;99.90
34877;DHT22;21086;44.780;17.194;2022-07-29T04:00:49;20.60;99.90
34877;DHT22;21086;44.780;17.194;2022-07-29T04:03:16;20.60;99.90
34877;DHT22;21086;44.780;17.194;2022-07-29T04:05:43;20.70;99.90
34877;DHT22;21086;44.780;17.194;2022-07-29T04:08:10;20.70;99.90
34877;DHT22;21086;44.780;17.194;2022-07-29T04:10:37;20.70;99.90
34877;DHT22;21086;44.780;17.194;2022-07-29T04:13:05;20.70;99.90
34877;DHT22;21086;44.780;17.194;2022-07-29T04:15:32;20.80;99.90
34877;DHT22;21086;44.780;17.194;2022-07-29T04:17:59;20.90;99.90
34877;DHT22;21086;44.780;17.194;2022-07-29T04:20:26;21.00;99.90
34877;DHT22;21086;44.780;17.194;2022-07-29T04:22:54;21.10;99.90
34877;DHT22;21086;44.780;17.194;2022-07-29T04:25:21;21.10;99.90
34877;DHT22;21086;44.780;17.194;2022-07-29T04:27:48;21.20;99.90
34877;DHT22;21086;44.780;17.194;2022-07-29T04:30:27;21.20;99.90
34877;DHT22;21086;44.780;17.194;2022-07-29T04:32:54;21.30;99.90
34877;DHT22;21086;44.780;17.194;2022-07-29T04:35:22;21.30;99.90
34877;DHT22;21086;44.780;17.194;2022-07-29T04:37:49;21.30;99.90
34877;DHT22;21086;44.780;17.194;2022-07-29T04:40:16;21.30;99.90
34877;DHT22;21086;44.780;17.194;2022-07-29T04:42:43;21.40;99.90
34877;DHT22;21086;44.780;17.194;2022-07-29T04:45:13;21.40;99.90
34877;DHT22;21086;44.780;17.194;2022-07-29T04:47:42;21.50;99.90
34877;DHT22;21086;44.780;17.194;2022-07-29T04:50:09;21.60;99.90
34877;DHT22;21086;44.780;17.194;2022-07-29T04:52:37;21.60;99.90
34877;DHT22;21086;44.780;17.194;2022-07-29T04:55:05;21.70;99.90
34877;DHT22;21086;44.780;17.194;2022-07-29T04:57:32;21.80;99.90
34877;DHT22;21086;44.780;17.194;2022-07-29T04:59:58;21.90;99.90
34877;DHT22;21086;44.780;17.194;2022-07-29T05:02:25;21.90;99.90
34877;DHT22;21086;44.780;17.194;2022-07-29T05:04:52;22.00;99.90
34877;DHT22;21086;44.780;17.194;2022-07-29T05:07:19;22.00;99.90
34877;DHT22;21086;44.780;17.194;2022-07-29T05:09:46;22.10;99.90
34877;DHT22;21086;44.780;17.194;2022-07-29T05:12:14;22.20;99.90
34877;DHT22;21086;44.780;17.194;2022-07-29T05:14:41;22.30;99.90
34877;DHT22;21086;44.780;17.194;2022-07-29T05:17:07;22.30;99.90
34877;DHT22;21086;44.780;17.194;2022-07-29T05:19:34;22.40;99.90
34877;DHT22;21086;44.780;17.194;2022-07-29T05:22:06;22.50;99.90
34877;DHT22;21086;44.780;17.194;2022-07-29T05:24:33;22.50;99.90
34877;DHT22;21086;44.780;17.194;2022-07-29T05:27:00;22.60;99.90
34877;DHT22;21086;44.780;17.194;2022-07-29T05:29:27;22.60;99.90
34877;DHT22;21086;44.780;17.194;2022-07-29T05:32:11;22.70;99.90
34877;DHT22;21086;44.780;17.194;2022-07-29T05:34:39;22.80;99.90
34877;DHT22;21086;44.780;17.194;2022-07-29T05:37:17;22.90;99.90
34877;DHT22;21086;44.780;17.194;2022-07-29T05:39:44;23.00;99.90
34877;DHT22;21086;44.780;17.194;2022-07-29T05:42:16;23.10;99.90
34877;DHT22;21086;44.780;17.194;2022-07-29T05:44:43;23.10;99.90
34877;DHT22;21086;44.780;17.194;2022-07-29T05:47:09;23.20;99.90
34877;DHT22;21086;44.780;17.194;2022-07-29T05:49:36;23.20;99.90
34877;DHT22;21086;44.780;17.194;2022-07-29T05:52:04;23.20;99.90
34877;DHT22;21086;44.780;17.194;2022-07-29T05:54:30;23.30;99.90
34877;DHT22;21086;44.780;17.194;2022-07-29T05:56:58;23.30;99.90
34877;DHT22;21086;44.780;17.194;2022-07-29T05:59:24;23.40;99.90
34877;DHT22;21086;44.780;17.194;2022-07-29T06:01:56;23.40;99.90
34877;DHT22;21086;44.780;17.194;2022-07-29T06:04:24;23.40;99.90
34877;DHT22;21086;44.780;17.194;2022-07-29T06:06:51;23.40;99.90
34877;DHT22;21086;44.780;17.194;2022-07-29T06:09:18;23.50;99.90
34877;DHT22;21086;44.780;17.194;2022-07-29T06:11:45;23.40;99.90
34877;DHT22;21086;44.780;17.194;2022-07-29T06:14:12;23.40;99.90
34877;DHT22;21086;44.780;17.194;2022-07-29T06:16:40;23.50;99.90
34877;DHT22;21086;44.780;17.194;2022-07-29T06:19:07;23.60;99.90
34877;DHT22;21086;44.780;17.194;2022-07-29T06:21:35;23.70;99.90
34877;DHT22;21086;44.780;17.194;2022-07-29T06:24:07;23.80;99.90
34877;DHT22;21086;44.780;17.194;2022-07-29T06:26:34;23.80;99.90
34877;DHT22;21086;44.780;17.194;2022-07-29T06:29:06;23.80;99.90
34877;DHT22;21086;44.780;17.194;2022-07-29T06:31:33;23.90;99.90
34877;DHT22;21086;44.780;17.194;2022-07-29T06:34:00;24.00;99.90
34877;DHT22;21086;44.780;17.194;2022-07-29T06:36:29;24.00;99.90
34877;DHT22;21086;44.780;17.194;2022-07-29T06:38:56;24.10;99.90
34877;DHT22;21086;44.780;17.194;2022-07-29T06:41:23;24.20;99.90
34877;DHT22;21086;44.780;17.194;2022-07-29T06:43:52;24.30;99.90
34877;DHT22;21086;44.780;17.194;2022-07-29T06:46:22;24.40;99.90
34877;DHT22;21086;44.780;17.194;2022-07-29T06:48:50;24.40;99.90
34877;DHT22;21086;44.780;17.194;2022-07-29T06:51:20;24.50;99.90
34877;DHT22;21086;44.780;17.194;2022-07-29T06:53:51;24.60;99.90
34877;DHT22;21086;44.780;17.194;2022-07-29T06:56:32;24.70;99.90
34877;DHT22;21086;44.780;17.194;2022-07-29T06:59:07;24.70;99.90
34877;DHT22;21086;44.780;17.194;2022-07-29T07:01:34;24.80;99.90
34877;DHT22;21086;44.780;17.194;2022-07-29T07:04:02;24.90;99.90
34877;DHT22;21086;44.780;17.194;2022-07-29T07:06:29;24.50;99.90
34877;DHT22;21086;44.780;17.194;2022-07-29T07:08:56;25.10;99.90
34877;DHT22;21086;44.780;17.194;2022-07-29T07:11:23;25.20;99.90
34877;DHT22;21086;44.780;17.194;2022-07-29T07:13:50;25.30;99.90
34877;DHT22;21086;44.780;17.194;2022-07-29T07:16:17;25.40;99.90
34877;DHT22;21086;44.780;17.194;2022-07-29T07:18:44;25.50;99.90
34877;DHT22;21086;44.780;17.194;2022-07-29T07:21:12;25.60;99.90
34877;DHT22;21086;44.780;17.194;2022-07-29T07:23:45;25.70;99.90
34877;DHT22;21086;44.780;17.194;2022-07-29T07:26:12;25.80;99.90
34877;DHT22;21086;44.780;17.194;2022-07-29T07:28:39;25.90;99.90
34877;DHT22;21086;44.780;17.194;2022-07-29T07:31:06;25.90;99.90
34877;DHT22;21086;44.780;17.194;2022-07-29T07:33:33;26.00;99.90
34877;DHT22;21086;44.780;17.194;2022-07-29T07:36:00;26.10;99.90
34877;DHT22;21086;44.780;17.194;2022-07-29T07:38:27;26.20;99.90
34877;DHT22;21086;44.780;17.194;2022-07-29T07:40:54;26.30;99.90
34877;DHT22;21086;44.780;17.194;2022-07-29T07:43:21;26.30;99.90
34877;DHT22;21086;44.780;17.194;2022-07-29T07:45:49;26.40;99.90
34877;DHT22;21086;44.780;17.194;2022-07-29T07:48:16;26.40;99.90
34877;DHT22;21086;44.780;17.194;2022-07-29T07:50:43;26.50;99.90
34877;DHT22;21086;44.780;17.194;2022-07-29T07:53:10;26.50;99.90
34877;DHT22;21086;44.780;17.194;2022-07-29T07:55:43;26.60;99.90
34877;DHT22;21086;44.780;17.194;2022-07-29T07:58:31;26.70;99.90
34877;DHT22;21086;44.780;17.194;2022-07-29T08:00:58;26.80;99.90
34877;DHT22;21086;44.780;17.194;2022-07-29T08:03:24;26.90;99.90
34877;DHT22;21086;44.780;17.194;2022-07-29T08:05:51;27.00;99.90
34877;DHT22;21086;44.780;17.194;2022-07-29T08:08:18;27.10;99.90
34877;DHT22;21086;44.780;17.194;2022-07-29T08:10:46;27.10;99.90
34877;DHT22;21086;44.780;17.194;2022-07-29T08:13:20;27.10;99.90
34877;DHT22;21086;44.780;17.194;2022-07-29T08:15:48;27.20;99.90
34877;DHT22;21086;44.780;17.194;2022-07-29T08:18:30;27.30;99.90
34877;DHT22;21086;44.780;17.194;2022-07-29T08:20:57;27.40;99.90
34877;DHT22;21086;44.780;17.194;2022-07-29T08:23:25;27.60;99.90
34877;DHT22;21086;44.780;17.194;2022-07-29T08:26:12;27.60;99.90
34877;DHT22;21086;44.780;17.194;2022-07-29T08:28:41;27.70;99.90
34877;DHT22;21086;44.780;17.194;2022-07-29T08:31:12;27.70;99.90
34877;DHT22;21086;44.780;17.194;2022-07-29T08:33:39;27.80;99.90
34877;DHT22;21086;44.780;17.194;2022-07-29T08:36:06;27.80;99.90
34877;DHT22;21086;44.780;17.194;2022-07-29T08:38:33;27.90;99.90
34877;DHT22;21086;44.780;17.194;2022-07-29T08:41:01;27.90;99.90
34877;DHT22;21086;44.780;17.194;2022-07-29T08:43:29;28.00;99.90
34877;DHT22;21086;44.780;17.194;2022-07-29T08:45:56;28.10;99.90
34877;DHT22;21086;44.780;17.194;2022-07-29T08:48:23;28.10;99.90
34877;DHT22;21086;44.780;17.194;2022-07-29T08:50:55;28.20;99.90
34877;DHT22;21086;44.780;17.194;2022-07-29T08:53:25;28.30;99.90
34877;DHT22;21086;44.780;17.194;2022-07-29T08:55:53;28.40;99.90
34877;DHT22;21086;44.780;17.194;2022-07-29T08:58:21;28.50;99.90
34877;DHT22;21086;44.780;17.194;2022-07-29T09:00:55;28.60;99.90
34877;DHT22;21086;44.780;17.194;2022-07-29T09:03:25;28.60;99.90
34877;DHT22;21086;44.780;17.194;2022-07-29T09:05:52;28.60;99.90
34877;DHT22;21086;44.780;17.194;2022-07-29T09:08:20;28.70;99.90
34877;DHT22;21086;44.780;17.194;2022-07-29T09:10:47;28.80;99.90
34877;DHT22;21086;44.780;17.194;2022-07-29T09:13:15;28.90;99.90
34877;DHT22;21086;44.780;17.194;2022-07-29T09:15:42;28.90;99.90
34877;DHT22;21086;44.780;17.194;2022-07-29T09:18:09;29.00;99.90
34877;DHT22;21086;44.780;17.194;2022-07-29T09:20:55;29.10;99.90
34877;DHT22;21086;44.780;17.194;2022-07-29T09:23:41;29.20;99.90
34877;DHT22;21086;44.780;17.194;2022-07-29T09:26:10;29.20;99.90
34877;DHT22;21086;44.780;17.194;2022-07-29T09:28:41;29.30;99.90
34877;DHT22;21086;44.780;17.194;2022-07-29T09:31:09;29.40;99.90
34877;DHT22;21086;44.780;17.194;2022-07-29T09:33:36;29.40;99.90
34877;DHT22;21086;44.780;17.194;2022-07-29T09:36:08;29.40;99.90
34877;DHT22;21086;44.780;17.194;2022-07-29T09:38:35;29.50;99.90
34877;DHT22;21086;44.780;17.194;2022-07-29T09:41:04;29.50;99.90
34877;DHT22;21086;44.780;17.194;2022-07-29T09:43:33;29.70;99.90
34877;DHT22;21086;44.780;17.194;2022-07-29T09:46:13;29.80;99.90
34877;DHT22;21086;44.780;17.194;2022-07-29T09:48:41;29.90;99.90
34877;DHT22;21086;44.780;17.194;2022-07-29T09:51:18;30.00;99.90
34877;DHT22;21086;44.780;17.194;2022-07-29T09:53:53;30.10;99.90
34877;DHT22;21086;44.780;17.194;2022-07-29T09:56:39;30.30;99.90
34877;DHT22;21086;44.780;17.194;2022-07-29T09:59:08;30.40;99.90
34877;DHT22;21086;44.780;17.194;2022-07-29T10:01:35;30.50;99.90
34877;DHT22;21086;44.780;17.194;2022-07-29T10:04:03;30.60;99.90
34877;DHT22;21086;44.780;17.194;2022-07-29T10:06:30;30.70;99.90
34877;DHT22;21086;44.780;17.194;2022-07-29T10:09:17;30.80;99.90
34877;DHT22;21086;44.780;17.194;2022-07-29T10:12:09;30.90;99.90
34877;DHT22;21086;44.780;17.194;2022-07-29T10:14:38;31.00;99.90
34877;DHT22;21086;44.780;17.194;2022-07-29T10:17:06;31.30;99.90
34877;DHT22;21086;44.780;17.194;2022-07-29T10:19:34;31.30;99.90
34877;DHT22;21086;44.780;17.194;2022-07-29T10:22:06;31.40;99.90
34877;DHT22;21086;44.780;17.194;2022-07-29T10:24:34;31.50;99.90
34877;DHT22;21086;44.780;17.194;2022-07-29T10:27:03;31.60;99.90
34877;DHT22;21086;44.780;17.194;2022-07-29T10:29:31;31.60;99.90
34877;DHT22;21086;44.780;17.194;2022-07-29T10:32:19;31.70;99.90
34877;DHT22;21086;44.780;17.194;2022-07-29T10:35:20;31.70;99.90
34877;DHT22;21086;44.780;17.194;2022-07-29T10:37:45;31.80;99.90
34877;DHT22;21086;44.780;17.194;2022-07-29T10:43:28;32.00;99.90
34877;DHT22;21086;44.780;17.194;2022-07-29T10:45:59;32.10;99.90
34877;DHT22;21086;44.780;17.194;2022-07-29T10:48:27;32.20;99.90
34877;DHT22;21086;44.780;17.194;2022-07-29T10:50:55;32.40;99.90
34877;DHT22;21086;44.780;17.194;2022-07-29T10:53:23;32.40;99.90
34877;DHT22;21086;44.780;17.194;2022-07-29T10:55:51;32.60;99.90
34877;DHT22;21086;44.780;17.194;2022-07-29T10:58:21;32.80;99.90
34877;DHT22;21086;44.780;17.194;2022-07-29T11:00:51;32.90;99.90
34877;DHT22;21086;44.780;17.194;2022-07-29T11:06:16;32.80;99.90
34877;DHT22;21086;44.780;17.194;2022-07-29T11:09:16;32.90;99.90
34877;DHT22;21086;44.780;17.194;2022-07-29T11:11:46;33.00;99.90
34877;DHT22;21086;44.780;17.194;2022-07-29T11:14:18;33.00;99.90
34877;DHT22;21086;44.780;17.194;2022-07-29T11:17:00;33.20;99.90
34877;DHT22;21086;44.780;17.194;2022-07-29T11:19:32;33.20;99.90
34877;DHT22;21086;44.780;17.194;2022-07-29T11:22:01;33.40;99.90
34877;DHT22;21086;44.780;17.194;2022-07-29T11:24:29;33.50;99.90
34877;DHT22;21086;44.780;17.194;2022-07-29T11:27:18;33.50;99.90
34877;DHT22;21086;44.780;17.194;2022-07-29T11:29:54;33.70;99.90
34877;DHT22;21086;44.780;17.194;2022-07-29T11:32:23;33.80;99.90
34877;DHT22;21086;44.780;17.194;2022-07-29T11:35:13;33.80;99.90
34877;DHT22;21086;44.780;17.194;2022-07-29T11:38:23;33.90;99.90
34877;DHT22;21086;44.780;17.194;2022-07-29T11:43:57;34.10;99.90
34877;DHT22;21086;44.780;17.194;2022-07-29T11:46:50;34.10;99.90
34877;DHT22;21086;44.780;17.194;2022-07-29T11:49:24;34.30;99.90
34877;DHT22;21086;44.780;17.194;2022-07-29T11:51:59;34.40;99.90
34877;DHT22;21086;44.780;17.194;2022-07-29T11:54:33;34.40;99.90
34877;DHT22;21086;44.780;17.194;2022-07-29T11:57:20;34.50;99.90
34877;DHT22;21086;44.780;17.194;2022-07-29T11:59:48;34.40;99.90
34877;DHT22;21086;44.780;17.194;2022-07-29T12:02:16;34.40;99.90
34877;DHT22;21086;44.780;17.194;2022-07-29T12:05:04;34.60;99.90
34877;DHT22;21086;44.780;17.194;2022-07-29T12:07:38;34.50;99.90
34877;DHT22;21086;44.780;17.194;2022-07-29T12:10:12;34.50;99.90
34877;DHT22;21086;44.780;17.194;2022-07-29T12:12:55;34.60;99.90
34877;DHT22;21086;44.780;17.194;2022-07-29T12:15:22;34.60;99.90
34877;DHT22;21086;44.780;17.194;2022-07-29T12:18:12;34.70;99.90
34877;DHT22;21086;44.780;17.194;2022-07-29T12:20:40;34.80;99.90
34877;DHT22;21086;44.780;17.194;2022-07-29T12:23:10;34.90;99.90
34877;DHT22;21086;44.780;17.194;2022-07-29T12:25:40;35.00;99.90
34877;DHT22;21086;44.780;17.194;2022-07-29T12:28:13;35.20;99.90
34877;DHT22;21086;44.780;17.194;2022-07-29T12:30:53;35.40;99.90
34877;DHT22;21086;44.780;17.194;2022-07-29T12:33:28;35.50;99.90
34877;DHT22;21086;44.780;17.194;2022-07-29T12:36:02;35.60;99.90
34877;DHT22;21086;44.780;17.194;2022-07-29T12:38:40;35.70;99.90
34877;DHT22;21086;44.780;17.194;2022-07-29T12:41:07;35.90;99.90
34877;DHT22;21086;44.780;17.194;2022-07-29T12:43:35;36.00;99.90
34877;DHT22;21086;44.780;17.194;2022-07-29T12:46:14;36.20;99.90
34877;DHT22;21086;44.780;17.194;2022-07-29T12:48:43;36.40;99.90
34877;DHT22;21086;44.780;17.194;2022-07-29T12:51:10;36.50;99.90
34877;DHT22;21086;44.780;17.194;2022-07-29T12:53:39;36.80;99.90
34877;DHT22;21086;44.780;17.194;2022-07-29T12:56:06;37.30;99.90
34877;DHT22;21086;44.780;17.194;2022-07-29T12:59:18;37.60;99.90
34877;DHT22;21086;44.780;17.194;2022-07-29T13:01:48;37.90;99.90
34877;DHT22;21086;44.780;17.194;2022-07-29T13:04:32;38.30;99.90
34877;DHT22;21086;44.780;17.194;2022-07-29T13:07:05;38.60;99.90
34877;DHT22;21086;44.780;17.194;2022-07-29T13:09:40;39.00;99.90
34877;DHT22;21086;44.780;17.194;2022-07-29T13:12:09;39.30;99.90
34877;DHT22;21086;44.780;17.194;2022-07-29T13:17:15;40.60;99.90
34877;DHT22;21086;44.780;17.194;2022-07-29T13:19:47;41.40;99.90
34877;DHT22;21086;44.780;17.194;2022-07-29T13:22:19;42.10;99.90
34877;DHT22;21086;44.780;17.194;2022-07-29T13:24:57;43.10;99.90
34877;DHT22;21086;44.780;17.194;2022-07-29T13:27:26;44.10;99.90
34877;DHT22;21086;44.780;17.194;2022-07-29T13:29:54;45.00;99.90
34877;DHT22;21086;44.780;17.194;2022-07-29T13:32:25;45.80;99.90
34877;DHT22;21086;44.780;17.194;2022-07-29T13:35:01;46.70;99.90
34877;DHT22;21086;44.780;17.194;2022-07-29T13:37:31;47.30;99.90
34877;DHT22;21086;44.780;17.194;2022-07-29T13:40:02;48.20;99.90
34877;DHT22;21086;44.780;17.194;2022-07-29T13:42:30;48.70;99.90
34877;DHT22;21086;44.780;17.194;2022-07-29T13:44:58;49.60;99.90
34877;DHT22;21086;44.780;17.194;2022-07-29T13:47:25;50.00;99.90
34877;DHT22;21086;44.780;17.194;2022-07-29T13:50:02;50.60;99.90
34877;DHT22;21086;44.780;17.194;2022-07-29T13:52:33;50.60;99.90
34877;DHT22;21086;44.780;17.194;2022-07-29T13:55:01;50.50;99.90
34877;DHT22;21086;44.780;17.194;2022-07-29T13:57:28;50.50;99.90
34877;DHT22;21086;44.780;17.194;2022-07-29T13:59:55;50.70;99.90
34877;DHT22;21086;44.780;17.194;2022-07-29T14:02:23;50.80;99.90
34877;DHT22;21086;44.780;17.194;2022-07-29T14:04:52;51.30;99.90
34877;DHT22;21086;44.780;17.194;2022-07-29T14:07:20;51.80;99.90
34877;DHT22;21086;44.780;17.194;2022-07-29T14:09:47;52.10;99.90
34877;DHT22;21086;44.780;17.194;2022-07-29T14:12:14;51.30;99.90
34877;DHT22;21086;44.780;17.194;2022-07-29T14:14:41;50.70;99.90
34877;DHT22;21086;44.780;17.194;2022-07-29T14:17:08;50.80;99.90
34877;DHT22;21086;44.780;17.194;2022-07-29T14:19:35;51.20;99.90
34877;DHT22;21086;44.780;17.194;2022-07-29T14:22:05;51.10;99.90
34877;DHT22;21086;44.780;17.194;2022-07-29T14:24:32;51.50;99.90
34877;DHT22;21086;44.780;17.194;2022-07-29T14:27:07;52.20;99.90
34877;DHT22;21086;44.780;17.194;2022-07-29T14:29:35;52.50;99.90
34877;DHT22;21086;44.780;17.194;2022-07-29T14:32:07;52.50;99.90
34877;DHT22;21086;44.780;17.194;2022-07-29T14:34:38;52.60;99.90
34877;DHT22;21086;44.780;17.194;2022-07-29T14:37:06;52.40;99.90
34877;DHT22;21086;44.780;17.194;2022-07-29T14:39:34;52.20;99.90
34877;DHT22;21086;44.780;17.194;2022-07-29T14:42:09;52.00;99.90
34877;DHT22;21086;44.780;17.194;2022-07-29T14:44:39;52.00;99.90
34877;DHT22;21086;44.780;17.194;2022-07-29T14:47:07;52.00;99.90
34877;DHT22;21086;44.780;17.194;2022-07-29T14:49:35;51.80;99.90
34877;DHT22;21086;44.780;17.194;2022-07-29T14:52:02;50.90;99.90
34877;DHT22;21086;44.780;17.194;2022-07-29T14:54:30;51.00;99.90
34877;DHT22;21086;44.780;17.194;2022-07-29T14:56:56;51.00;99.90
34877;DHT22;21086;44.780;17.194;2022-07-29T14:59:24;51.00;99.90
34877;DHT22;21086;44.780;17.194;2022-07-29T15:01:51;51.40;99.90
34877;DHT22;21086;44.780;17.194;2022-07-29T15:04:18;51.80;99.90
34877;DHT22;21086;44.780;17.194;2022-07-29T15:06:45;52.10;99.90
34877;DHT22;21086;44.780;17.194;2022-07-29T15:09:13;52.40;99.90
34877;DHT22;21086;44.780;17.194;2022-07-29T15:11:40;52.40;99.90
34877;DHT22;21086;44.780;17.194;2022-07-29T15:14:07;52.30;99.90
34877;DHT22;21086;44.780;17.194;2022-07-29T15:16:36;51.90;99.90
34877;DHT22;21086;44.780;17.194;2022-07-29T15:19:04;51.60;99.90
34877;DHT22;21086;44.780;17.194;2022-07-29T15:21:31;51.70;99.90
34877;DHT22;21086;44.780;17.194;2022-07-29T15:23:58;51.60;99.90
34877;DHT22;21086;44.780;17.194;2022-07-29T15:26:25;51.50;99.90
34877;DHT22;21086;44.780;17.194;2022-07-29T15:28:52;51.60;99.90
34877;DHT22;21086;44.780;17.194;2022-07-29T15:31:19;51.60;99.90
34877;DHT22;21086;44.780;17.194;2022-07-29T15:33:46;51.30;99.90
34877;DHT22;21086;44.780;17.194;2022-07-29T15:36:13;51.50;99.90
34877;DHT22;21086;44.780;17.194;2022-07-29T15:39:00;51.30;99.90
34877;DHT22;21086;44.780;17.194;2022-07-29T15:41:27;51.00;99.90
34877;DHT22;21086;44.780;17.194;2022-07-29T15:43:54;50.50;99.90
34877;DHT22;21086;44.780;17.194;2022-07-29T15:46:21;50.40;99.90
34877;DHT22;21086;44.780;17.194;2022-07-29T15:49:07;50.20;99.90
34877;DHT22;21086;44.780;17.194;2022-07-29T15:51:34;49.60;99.90
34877;DHT22;21086;44.780;17.194;2022-07-29T15:54:03;49.30;99.90
34877;DHT22;21086;44.780;17.194;2022-07-29T15:56:30;49.30;99.90
34877;DHT22;21086;44.780;17.194;2022-07-29T15:58:58;49.40;99.90
34877;DHT22;21086;44.780;17.194;2022-07-29T16:01:26;49.20;99.90
34877;DHT22;21086;44.780;17.194;2022-07-29T16:03:53;49.00;99.90